createdAt,value
2019-05-19T00:00:50.277Z,60.87
2019-05-19T00:03:22.645Z,56.77
2019-05-19T00:05:54.846Z,58.67
2019-05-19T00:08:27.110Z,60.07
2019-05-19T00:10:59.364Z,57.30
2019-05-19T00:13:31.588Z,60.90
2019-05-19T00:16:04.876Z,64.43
2019-05-19T00:18:37.468Z,62.30
2019-05-19T00:21:09.689Z,61.03
2019-05-19T00:23:41.956Z,60.83
2019-05-19T00:26:14.261Z,61.47
2019-05-19T00:28:46.493Z,65.40
2019-05-19T00:31:18.790Z,64.10
2019-05-19T00:33:51.071Z,63.40
2019-05-19T00:36:23.354Z,62.60
2019-05-19T00:38:55.603Z,64.10
2019-05-19T00:41:27.832Z,67.20
2019-05-19T00:44:00.233Z,67.43
2019-05-19T00:46:32.551Z,67.77
2019-05-19T00:49:04.820Z,64.50
2019-05-19T00:51:37.010Z,65.53
2019-05-19T00:54:09.231Z,69.03
2019-05-19T00:56:41.549Z,68.73
2019-05-19T00:59:15.795Z,69.97
2019-05-19T01:01:48.074Z,66.07
2019-05-19T01:04:20.345Z,69.90
2019-05-19T01:06:52.599Z,68.13
2019-05-19T01:09:24.832Z,71.53
2019-05-19T01:11:57.080Z,70.50
2019-05-19T01:14:29.604Z,67.70
2019-05-19T01:17:02.275Z,71.23
2019-05-19T01:19:34.880Z,67.73
2019-05-19T01:22:07.107Z,73.87
2019-05-19T01:24:39.523Z,74.80
2019-05-19T01:27:11.753Z,69.53
2019-05-19T01:29:43.990Z,67.67
2019-05-19T01:32:16.234Z,69.17
2019-05-19T01:34:48.460Z,73.80
2019-05-19T01:37:20.749Z,74.07
2019-05-19T01:39:53.003Z,76.90
2019-05-19T01:42:25.301Z,67.17
2019-05-19T01:44:57.540Z,72.73
2019-05-19T01:47:29.845Z,70.83
2019-05-19T01:50:17.042Z,71.23
2019-05-19T01:52:35.971Z,74.93
2019-05-19T01:55:08.193Z,74.67
2019-05-19T01:57:42.747Z,75.30
2019-05-19T02:00:15.021Z,75.43
2019-05-19T02:02:47.324Z,75.83
2019-05-19T02:05:19.508Z,67.93
2019-05-19T02:07:51.950Z,70.53
2019-05-19T02:10:24.239Z,75.00
2019-05-19T02:12:56.461Z,68.80
2019-05-19T02:15:28.680Z,67.87
2019-05-19T02:18:00.926Z,71.80
2019-05-19T02:20:34.111Z,76.23
2019-05-19T02:23:06.393Z,70.07
2019-05-19T02:25:38.627Z,73.97
2019-05-19T02:28:10.917Z,70.87
2019-05-19T02:30:43.138Z,75.13
2019-05-19T02:33:15.382Z,73.20
2019-05-19T02:35:47.587Z,71.13
2019-05-19T02:38:20.075Z,73.23
2019-05-19T02:40:52.300Z,76.23
2019-05-19T02:43:24.558Z,74.73
2019-05-19T02:45:56.792Z,76.47
2019-05-19T02:48:28.998Z,75.87
2019-05-19T02:51:01.244Z,78.37
2019-05-19T02:53:33.493Z,76.00
2019-05-19T02:56:05.727Z,74.40
2019-05-19T02:58:38.024Z,76.63
2019-05-19T03:01:10.235Z,74.63
2019-05-19T03:03:42.578Z,76.27
2019-05-19T03:06:14.839Z,73.70
2019-05-19T03:08:47.063Z,73.27
2019-05-19T03:11:19.320Z,77.70
2019-05-19T03:13:51.532Z,76.07
2019-05-19T03:16:23.754Z,77.47
2019-05-19T03:18:55.974Z,75.37
2019-05-19T03:21:28.234Z,75.03
2019-05-19T03:24:00.434Z,75.47
2019-05-19T03:26:32.698Z,74.60
2019-05-19T03:29:04.954Z,77.23
2019-05-19T03:31:37.182Z,74.47
2019-05-19T03:34:09.453Z,74.70
2019-05-19T03:36:41.690Z,75.80
2019-05-19T03:39:13.915Z,70.67
2019-05-19T03:41:46.167Z,73.93
2019-05-19T03:44:18.406Z,73.50
2019-05-19T03:46:50.679Z,68.70
2019-05-19T03:49:22.966Z,71.00
2019-05-19T03:51:55.309Z,66.77
2019-05-19T03:54:27.534Z,72.93
2019-05-19T03:57:00.781Z,70.10
2019-05-19T03:59:34.157Z,68.53
2019-05-19T04:02:06.420Z,64.37
2019-05-19T04:04:38.622Z,69.70
2019-05-19T04:07:10.894Z,69.80
2019-05-19T04:09:43.120Z,70.47
2019-05-19T04:12:15.360Z,66.97
2019-05-19T04:14:47.605Z,66.03
2019-05-19T04:17:20.799Z,69.17
2019-05-19T04:19:53.076Z,70.17
2019-05-19T04:22:25.301Z,68.67
2019-05-19T04:24:57.522Z,71.73
2019-05-19T04:27:29.782Z,71.53
2019-05-19T04:30:02.050Z,71.83
2019-05-19T04:32:34.881Z,70.60
2019-05-19T04:35:07.139Z,71.50
2019-05-19T04:37:39.355Z,68.63
2019-05-19T04:40:11.572Z,64.47
2019-05-19T04:42:43.814Z,70.10
2019-05-19T04:45:16.069Z,68.67
2019-05-19T04:47:48.308Z,66.10
2019-05-19T04:50:20.650Z,70.57
2019-05-19T04:52:52.885Z,68.93
2019-05-19T04:55:25.182Z,73.60
2019-05-19T04:57:57.407Z,68.43
2019-05-19T05:00:29.675Z,70.20
2019-05-19T05:03:01.919Z,65.03
2019-05-19T05:05:34.185Z,67.73
2019-05-19T05:08:06.408Z,71.10
2019-05-19T05:10:38.640Z,73.00
2019-05-19T05:13:10.866Z,73.43
2019-05-19T05:15:43.144Z,68.57
2019-05-19T05:18:17.421Z,69.70
2019-05-19T05:20:49.706Z,67.67
2019-05-19T05:23:22.009Z,66.83
2019-05-19T05:25:54.442Z,69.23
2019-05-19T05:28:26.651Z,67.47
2019-05-19T05:30:59.108Z,68.80
2019-05-19T05:33:31.329Z,63.67
2019-05-19T05:36:03.560Z,63.87
2019-05-19T05:38:35.772Z,62.77
2019-05-19T05:41:08.026Z,63.07
2019-05-19T05:43:41.324Z,61.23
2019-05-19T05:46:13.560Z,58.63
2019-05-19T05:48:45.798Z,59.93
2019-05-19T05:51:18.033Z,61.13
2019-05-19T05:53:50.238Z,59.27
2019-05-19T05:56:22.468Z,57.97
2019-05-19T05:58:54.758Z,59.90
2019-05-19T06:01:26.962Z,59.43
2019-05-19T06:03:59.215Z,58.50
2019-05-19T06:06:33.479Z,55.77
2019-05-19T06:09:05.789Z,56.50
2019-05-19T06:11:38.028Z,56.17
2019-05-19T06:14:10.280Z,58.77
2019-05-19T06:16:43.628Z,56.13
2019-05-19T06:19:15.845Z,58.50
2019-05-19T06:21:48.087Z,58.20
2019-05-19T06:24:20.323Z,55.27
2019-05-19T06:26:52.539Z,59.57
2019-05-19T06:29:24.829Z,60.57
2019-05-19T06:31:57.067Z,58.97
2019-05-19T06:34:29.614Z,56.10
2019-05-19T06:37:02.113Z,58.40
2019-05-19T06:39:34.428Z,55.77
2019-05-19T06:42:06.631Z,59.03
2019-05-19T06:44:38.831Z,57.07
2019-05-19T06:47:11.173Z,55.83
2019-05-19T06:49:43.394Z,55.47
2019-05-19T06:52:15.615Z,55.43
2019-05-19T06:54:47.870Z,53.97
2019-05-19T06:57:20.098Z,50.87
2019-05-19T06:59:52.307Z,53.40
2019-05-19T07:02:24.592Z,47.63
2019-05-19T07:04:56.781Z,48.77
2019-05-19T07:07:29.028Z,48.90
2019-05-19T07:10:02.844Z,49.17
2019-05-19T07:12:36.132Z,51.07
2019-05-19T07:15:08.469Z,52.80
2019-05-19T07:17:40.738Z,50.83
2019-05-19T07:20:12.965Z,50.43
2019-05-19T07:22:45.191Z,48.30
2019-05-19T07:25:17.288Z,48.53
2019-05-19T07:27:49.631Z,47.83
2019-05-19T07:30:21.922Z,45.60
2019-05-19T07:32:54.178Z,44.10
2019-05-19T07:35:26.497Z,44.80
2019-05-19T07:37:58.924Z,43.73
2019-05-19T07:40:31.157Z,44.10
2019-05-19T07:43:03.395Z,44.87
2019-05-19T07:45:35.706Z,44.33
2019-05-19T07:48:07.972Z,45.13
2019-05-19T07:50:40.142Z,41.40
2019-05-19T07:53:12.420Z,43.67
2019-05-19T07:55:44.662Z,42.10
2019-05-19T07:58:16.937Z,43.87
2019-05-19T08:00:49.187Z,41.07
2019-05-19T08:03:21.404Z,43.73
2019-05-19T08:05:56.794Z,43.43
2019-05-19T08:08:27.561Z,40.93
2019-05-19T08:10:59.805Z,40.27
2019-05-19T08:13:32.097Z,43.90
2019-05-19T08:16:04.441Z,38.93
2019-05-19T08:18:36.643Z,40.67
2019-05-19T08:21:08.881Z,43.77
2019-05-19T08:23:41.132Z,42.90
2019-05-19T08:26:13.410Z,40.90
2019-05-19T08:28:45.720Z,43.40
2019-05-19T08:31:17.938Z,42.00
2019-05-19T08:33:50.219Z,43.00
2019-05-19T08:36:22.471Z,42.63
2019-05-19T08:38:54.584Z,40.17
2019-05-19T08:41:26.828Z,41.93
2019-05-19T08:43:59.128Z,40.97
2019-05-19T08:46:31.382Z,42.50
2019-05-19T08:49:03.785Z,41.53
2019-05-19T08:51:38.253Z,43.53
2019-05-19T08:54:15.136Z,42.40
2019-05-19T08:56:44.441Z,43.07
2019-05-19T08:59:16.988Z,44.13
2019-05-19T09:01:49.215Z,41.07
2019-05-19T09:04:21.477Z,40.83
2019-05-19T09:06:53.778Z,45.17
2019-05-19T09:09:26.192Z,39.37
2019-05-19T09:11:58.437Z,38.47
2019-05-19T09:14:30.724Z,39.63
2019-05-19T09:17:03.025Z,40.83
2019-05-19T09:19:35.558Z,39.93
2019-05-19T09:22:07.801Z,40.57
2019-05-19T09:24:40.032Z,42.73
2019-05-19T09:27:12.408Z,40.63
2019-05-19T09:29:44.648Z,40.77
2019-05-19T09:32:16.873Z,38.97
2019-05-19T09:34:49.178Z,41.40
2019-05-19T09:37:21.453Z,38.40
2019-05-19T09:39:53.744Z,40.50
2019-05-19T09:42:26.010Z,40.13
2019-05-19T09:44:58.381Z,39.93
2019-05-19T09:47:30.702Z,39.17
2019-05-19T09:50:02.946Z,41.47
2019-05-19T09:52:35.163Z,39.83
2019-05-19T09:55:07.236Z,40.50
2019-05-19T09:57:40.507Z,38.10
2019-05-19T10:00:12.805Z,37.87
2019-05-19T10:02:45.117Z,36.73
2019-05-19T10:05:17.561Z,37.23
2019-05-19T10:07:49.883Z,38.00
2019-05-19T10:10:22.182Z,38.07
2019-05-19T10:12:54.602Z,38.10
2019-05-19T10:15:26.906Z,40.23
2019-05-19T10:17:59.141Z,41.67
2019-05-19T10:20:31.407Z,42.33
2019-05-19T10:23:03.756Z,40.50
2019-05-19T10:25:36.067Z,40.60
2019-05-19T10:28:08.329Z,38.90
2019-05-19T10:30:40.886Z,40.37
2019-05-19T10:33:13.118Z,37.57
2019-05-19T10:35:45.368Z,39.23
2019-05-19T10:38:17.939Z,40.63
2019-05-19T10:40:51.312Z,39.57
2019-05-19T10:43:23.768Z,41.17
2019-05-19T10:45:56.019Z,40.27
2019-05-19T10:48:28.328Z,40.30
2019-05-19T10:51:00.557Z,38.67
2019-05-19T10:53:32.838Z,40.47
2019-05-19T10:56:05.316Z,37.53
2019-05-19T10:58:37.621Z,36.83
2019-05-19T11:01:09.898Z,38.43
2019-05-19T11:03:42.361Z,38.77
2019-05-19T11:06:14.724Z,37.30
2019-05-19T11:08:47.022Z,39.10
2019-05-19T11:11:19.309Z,38.10
2019-05-19T11:13:51.672Z,36.87
2019-05-19T11:16:23.891Z,35.43
2019-05-19T11:18:56.124Z,37.93
2019-05-19T11:21:28.397Z,34.77
2019-05-19T11:24:00.752Z,37.97
2019-05-19T11:26:33.117Z,41.53
2019-05-19T11:29:05.359Z,36.23
2019-05-19T11:31:37.619Z,37.70
2019-05-19T11:34:09.986Z,36.70
2019-05-19T11:36:42.309Z,39.97
2019-05-19T11:39:14.544Z,35.33
2019-05-19T11:41:46.795Z,37.50
2019-05-19T11:44:19.198Z,36.07
2019-05-19T11:46:51.429Z,38.30
2019-05-19T11:49:23.721Z,36.23
2019-05-19T11:51:55.920Z,38.00
2019-05-19T11:54:28.187Z,37.23
2019-05-19T11:57:00.566Z,35.33
2019-05-19T11:59:32.804Z,36.63
2019-05-19T12:02:04.858Z,34.53
2019-05-19T12:04:37.740Z,33.02
2019-05-19T12:07:10.564Z,34.00
2019-05-19T12:09:43.468Z,33.13
2019-05-19T12:12:16.307Z,37.65
2019-05-19T12:14:49.351Z,37.70
2019-05-19T12:17:22.169Z,35.83
2019-05-19T12:19:55.270Z,34.92
2019-05-19T12:22:28.205Z,38.13
2019-05-19T12:25:01.044Z,37.60
2019-05-19T12:27:33.896Z,39.18
2019-05-19T12:30:06.724Z,38.45
2019-05-19T12:32:39.775Z,35.83
2019-05-19T12:35:12.602Z,38.95
2019-05-19T12:37:45.548Z,38.58
2019-05-19T12:40:18.431Z,37.98
2019-05-19T12:42:51.385Z,34.90
2019-05-19T12:45:26.691Z,40.05
2019-05-19T12:47:59.543Z,37.95
2019-05-19T12:50:32.353Z,39.00
2019-05-19T12:53:05.320Z,35.43
2019-05-19T12:55:38.056Z,37.23
2019-05-19T12:58:11.500Z,36.25
2019-05-19T13:00:44.386Z,36.77
2019-05-19T13:03:18.857Z,39.42
2019-05-19T13:05:51.791Z,36.73
2019-05-19T13:08:24.797Z,39.73
2019-05-19T13:10:57.447Z,39.15
2019-05-19T13:13:30.237Z,37.35
2019-05-19T13:16:03.140Z,39.15
2019-05-19T13:18:38.255Z,39.08
2019-05-19T13:21:11.076Z,41.45
2019-05-19T13:23:43.940Z,39.48
2019-05-19T13:26:16.811Z,36.10
2019-05-19T13:28:49.680Z,40.12
2019-05-19T13:31:24.542Z,35.70
2019-05-19T13:33:57.482Z,37.30
2019-05-19T13:36:30.336Z,38.78
2019-05-19T13:39:03.190Z,40.15
2019-05-19T13:41:36.983Z,39.50
2019-05-19T13:44:09.858Z,39.10
2019-05-19T13:46:42.649Z,37.93
2019-05-19T13:49:15.603Z,40.12
2019-05-19T13:51:48.420Z,37.05
2019-05-19T13:54:21.316Z,38.08
2019-05-19T13:56:54.181Z,35.75
2019-05-19T13:59:26.980Z,36.85
2019-05-19T14:01:59.850Z,38.20
2019-05-19T14:04:32.927Z,38.60
2019-05-19T14:07:05.914Z,38.50
2019-05-19T14:09:38.226Z,38.37
2019-05-19T14:12:10.493Z,37.63
2019-05-19T14:14:42.702Z,37.67
2019-05-19T14:17:15.158Z,39.43
2019-05-19T14:19:47.433Z,39.03
2019-05-19T14:22:19.687Z,37.97
2019-05-19T14:24:51.928Z,36.23
2019-05-19T14:27:30.580Z,35.37
2019-05-19T14:29:58.197Z,35.77
2019-05-19T14:32:30.548Z,34.03
2019-05-19T14:35:02.787Z,34.27
2019-05-19T14:37:35.004Z,34.93
2019-05-19T14:40:07.495Z,33.70
2019-05-19T14:42:41.764Z,34.70
2019-05-19T14:45:14.084Z,32.07
2019-05-19T14:47:46.314Z,36.70
2019-05-19T14:50:18.604Z,38.20
2019-05-19T14:52:50.851Z,36.37
2019-05-19T14:55:23.088Z,35.57
2019-05-19T14:57:55.382Z,36.93
2019-05-19T15:00:27.616Z,39.17
2019-05-19T15:02:59.838Z,37.07
2019-05-19T15:05:32.142Z,37.20
2019-05-19T15:08:04.810Z,36.40
2019-05-19T15:10:37.265Z,34.93
2019-05-19T15:13:09.533Z,34.97
2019-05-19T15:15:41.781Z,34.27
2019-05-19T15:18:16.384Z,36.60
2019-05-19T15:20:48.589Z,35.73
2019-05-19T15:23:20.874Z,35.50
2019-05-19T15:25:53.072Z,34.77
2019-05-19T15:28:25.314Z,34.63
2019-05-19T15:30:57.592Z,36.37
2019-05-19T15:33:37.755Z,35.83
2019-05-19T15:36:03.941Z,37.50
2019-05-19T15:38:36.224Z,37.87
2019-05-19T15:41:08.482Z,36.57
2019-05-19T15:43:40.688Z,38.80
2019-05-19T15:46:12.948Z,37.27
2019-05-19T15:48:45.230Z,37.70
2019-05-19T15:51:27.841Z,38.33
2019-05-19T15:53:51.435Z,41.20
2019-05-19T15:56:23.677Z,37.37
2019-05-19T15:58:56.002Z,39.43
2019-05-19T16:01:28.229Z,38.90
2019-05-19T16:04:00.446Z,39.67
2019-05-19T16:06:32.685Z,35.57
2019-05-19T16:09:04.934Z,37.73
2019-05-19T16:11:38.787Z,36.90
2019-05-19T16:14:11.026Z,37.93
2019-05-19T16:16:43.280Z,35.80
2019-05-19T16:19:15.550Z,35.73
2019-05-19T16:21:47.953Z,36.87
2019-05-19T16:24:20.264Z,38.53
2019-05-19T16:26:52.947Z,33.07
2019-05-19T16:29:29.742Z,35.53
2019-05-19T16:32:02.018Z,37.43
2019-05-19T16:34:35.994Z,34.90
2019-05-19T16:37:08.522Z,35.90
2019-05-19T16:39:41.445Z,34.73
2019-05-19T16:42:13.676Z,33.50
2019-05-19T16:44:45.988Z,35.07
2019-05-19T16:47:18.261Z,33.97
2019-05-19T16:49:51.514Z,34.67
2019-05-19T16:52:23.870Z,31.53
2019-05-19T16:54:56.203Z,31.87
2019-05-19T16:57:28.692Z,30.93
2019-05-19T17:00:00.708Z,28.67
2019-05-19T17:02:34.718Z,30.33
2019-05-19T17:05:07.007Z,28.30
2019-05-19T17:07:39.570Z,29.37
2019-05-19T17:10:11.848Z,30.90
2019-05-19T17:12:44.183Z,31.43
2019-05-19T17:15:17.585Z,30.60
2019-05-19T17:17:49.636Z,32.73
2019-05-19T17:20:22.116Z,33.27
2019-05-19T17:22:54.648Z,31.30
2019-05-19T17:25:27.699Z,33.40
2019-05-19T17:28:00.024Z,32.37
2019-05-19T17:30:32.719Z,32.87
2019-05-19T17:33:04.994Z,31.87
2019-05-19T17:35:37.319Z,31.27
2019-05-19T17:38:09.575Z,31.10
2019-05-19T17:40:41.884Z,31.07
2019-05-19T17:43:14.123Z,30.17
2019-05-19T17:45:46.568Z,30.43
2019-05-19T17:48:26.065Z,33.87
2019-05-19T17:50:52.786Z,31.67
2019-05-19T17:53:25.012Z,33.13
2019-05-19T17:55:57.349Z,33.33
2019-05-19T17:58:29.662Z,34.00
2019-05-19T18:01:02.152Z,33.93
2019-05-19T18:03:34.646Z,32.37
2019-05-19T18:06:06.864Z,35.00
2019-05-19T18:08:39.155Z,35.07
2019-05-19T18:11:11.420Z,34.80
2019-05-19T18:13:43.729Z,35.27
2019-05-19T18:16:15.941Z,33.53
2019-05-19T18:18:48.195Z,35.13
2019-05-19T18:21:20.430Z,33.23
2019-05-19T18:23:52.660Z,33.63
2019-05-19T18:26:24.932Z,33.03
2019-05-19T18:28:57.159Z,30.87
2019-05-19T18:31:31.247Z,34.47
2019-05-19T18:34:03.959Z,32.90
2019-05-19T18:36:36.205Z,32.83
2019-05-19T18:39:08.755Z,32.63
2019-05-19T18:41:41.024Z,32.87
2019-05-19T18:44:13.274Z,30.60
2019-05-19T18:46:45.517Z,31.00
2019-05-19T18:49:17.742Z,29.70
2019-05-19T18:51:49.983Z,30.37
2019-05-19T18:54:22.291Z,31.00
2019-05-19T18:56:54.552Z,28.43
2019-05-19T18:59:26.837Z,29.57
2019-05-19T19:02:01.361Z,27.63
2019-05-19T19:04:33.908Z,28.37
2019-05-19T19:07:06.117Z,31.03
2019-05-19T19:09:38.409Z,28.73
2019-05-19T19:12:10.749Z,29.80
2019-05-19T19:14:42.979Z,28.80
2019-05-19T19:17:15.272Z,28.53
2019-05-19T19:19:47.523Z,26.83
2019-05-19T19:22:21.795Z,25.80
2019-05-19T19:24:54.074Z,25.90
2019-05-19T19:27:28.559Z,27.70
2019-05-19T19:30:04.005Z,29.50
2019-05-19T19:32:34.861Z,26.07
2019-05-19T19:35:07.133Z,26.00
2019-05-19T19:37:39.419Z,25.60
2019-05-19T19:40:11.724Z,26.13
2019-05-19T19:42:44.057Z,24.27
2019-05-19T19:45:16.350Z,22.87
2019-05-19T19:47:48.600Z,23.90
2019-05-19T19:50:20.844Z,24.83
2019-05-19T19:52:53.040Z,24.23
2019-05-19T19:55:25.286Z,24.70
2019-05-19T19:57:57.574Z,23.80
2019-05-19T20:00:29.913Z,22.30
2019-05-19T20:03:02.209Z,21.97
2019-05-19T20:05:34.475Z,24.37
2019-05-19T20:08:06.946Z,24.53
2019-05-19T20:10:39.241Z,23.53
2019-05-19T20:13:11.534Z,23.27
2019-05-19T20:15:43.968Z,23.83
2019-05-19T20:18:16.413Z,24.90
2019-05-19T20:20:48.843Z,23.23
2019-05-19T20:23:21.124Z,24.47
2019-05-19T20:25:53.438Z,23.17
2019-05-19T20:28:25.688Z,25.77
2019-05-19T20:30:58.058Z,25.40
2019-05-19T20:33:30.549Z,22.73
2019-05-19T20:36:02.914Z,23.30
2019-05-19T20:38:35.173Z,22.80
2019-05-19T20:41:07.450Z,25.63
2019-05-19T20:43:39.848Z,25.00
2019-05-19T20:46:12.082Z,23.63
2019-05-19T20:48:44.357Z,26.23
2019-05-19T20:51:16.611Z,23.70
2019-05-19T20:53:49.013Z,26.40
2019-05-19T20:56:21.270Z,26.93
2019-05-19T20:58:53.574Z,26.27
2019-05-19T21:01:26.066Z,27.67
2019-05-19T21:03:58.304Z,28.00
2019-05-19T21:06:30.632Z,27.97
2019-05-19T21:09:02.873Z,26.77
2019-05-19T21:11:36.565Z,26.80
2019-05-19T21:14:08.834Z,27.47
2019-05-19T21:16:41.130Z,25.53
2019-05-19T21:19:15.075Z,26.80
2019-05-19T21:21:47.292Z,25.00
2019-05-19T21:24:19.527Z,25.00
2019-05-19T21:26:51.823Z,26.27
2019-05-19T21:29:24.102Z,24.80
2019-05-19T21:31:56.315Z,26.27
2019-05-19T21:34:28.570Z,23.70
2019-05-19T21:37:00.796Z,26.03
2019-05-19T21:39:33.024Z,25.97
2019-05-19T21:42:05.337Z,24.63
2019-05-19T21:44:37.645Z,25.63
2019-05-19T21:47:09.889Z,25.30
2019-05-19T21:49:42.136Z,27.63
2019-05-19T21:52:14.410Z,23.27
2019-05-19T21:54:46.655Z,25.43
2019-05-19T21:57:18.919Z,23.20
2019-05-19T21:59:51.319Z,24.23
2019-05-19T22:02:23.601Z,24.20
2019-05-19T22:04:55.883Z,23.97
2019-05-19T22:07:28.104Z,25.23
2019-05-19T22:10:00.343Z,22.93
2019-05-19T22:12:32.617Z,23.40
2019-05-19T22:15:05.903Z,24.57
2019-05-19T22:17:38.330Z,24.70
2019-05-19T22:20:10.548Z,24.43
2019-05-19T22:22:43.891Z,24.93
2019-05-19T22:25:15.998Z,23.40
2019-05-19T22:27:48.338Z,24.50
2019-05-19T22:30:20.610Z,25.73
2019-05-19T22:32:52.853Z,24.47
2019-05-19T22:35:25.095Z,23.93
2019-05-19T22:37:57.427Z,24.57
2019-05-19T22:40:29.457Z,23.83
2019-05-19T22:43:01.699Z,26.67
2019-05-19T22:45:33.940Z,24.87
2019-05-19T22:48:06.167Z,24.23
2019-05-19T22:50:38.444Z,26.83
2019-05-19T22:53:10.664Z,22.83
2019-05-19T22:55:42.866Z,22.00
2019-05-19T22:58:15.155Z,22.33
2019-05-19T23:00:47.402Z,22.33
2019-05-19T23:03:19.639Z,22.93
2019-05-19T23:05:51.885Z,22.87
2019-05-19T23:08:23.963Z,22.20
2019-05-19T23:10:56.170Z,21.03
2019-05-19T23:13:28.577Z,22.63
2019-05-19T23:16:00.872Z,20.30
2019-05-19T23:18:33.382Z,21.77
2019-05-19T23:21:05.631Z,22.43
2019-05-19T23:23:37.937Z,20.77
2019-05-19T23:26:10.160Z,20.67
2019-05-19T23:28:43.449Z,22.90
2019-05-19T23:31:15.664Z,22.90
2019-05-19T23:33:47.892Z,22.50
2019-05-19T23:36:20.121Z,21.90
2019-05-19T23:38:52.358Z,20.17
2019-05-19T23:41:24.669Z,22.60
2019-05-19T23:43:56.959Z,22.27
2019-05-19T23:46:30.021Z,21.93
2019-05-19T23:49:02.322Z,23.13
2019-05-19T23:51:34.583Z,24.40
2019-05-19T23:54:07.877Z,23.63
2019-05-19T23:56:40.124Z,23.10
2019-05-19T23:59:12.345Z,22.23
